Terminal Aerodrome Forecast
Issued by NWS Sioux Falls, SD

Home | Current Version | Previous Version | Text Only | Print | Product List | Glossary On
Versions: 1 2 3 4 5 6 7 8 9 10 11 12 13 14 15 16
000
FTUS43 KFSD 230549
TAFFSD
TAF
KFSD 230549Z 2306/2406 17016G24KT P6SM OVC050
      TEMPO 2306/2307 VRB18G28KT TSRA BKN040CB
     FM230700 22013KT P6SM TSRA OVC050CB
      TEMPO 2307/2308 VRB15KT 4SM TSRA BKN040CB OVC070
     FM230900 17011KT P6SM SHRA OVC050
     FM231300 20010KT P6SM OVC045
      TEMPO 2313/2315 6SM -SHRA
     FM231900 25008KT P6SM BKN050
     FM240200 20005KT P6SM SCT090=

USA.gov is the U.S. government's official web portal to all federal, state and local government web resources and services.